Time;durP1;ratioP1;P1;durP2;ratioP2;P2;SDS_P1;SDS_P2;PMS_P1;PMS_P2;Temp;Humidity;BMP_temperature;BMP_pressure;BME280_temperature;BME280_humidity;BME280_pressure;Samples;Min_cycle;Max_cycle;Signal;HPM_P1;HPM_P2
2022/11/22 00:02:08;;;;;;;0.20;0.20;;;;;;;5.94;100.00;99072.44;4986029;28;20480;-69
2022/11/22 00:04:34;;;;;;;0.20;0.20;;;;;;;5.67;100.00;99089.84;4985491;28;20034;-69
2022/11/22 00:06:59;;;;;;;0.10;0.10;;;;;;;5.63;100.00;99099.06;4990277;28;20515;-68
2022/11/22 00:09:25;;;;;;;0.10;0.10;;;;;;;5.62;100.00;99104.50;4989268;28;20030;-68
2022/11/22 00:11:50;;;;;;;0.10;0.10;;;;;;;5.54;100.00;99087.38;4996789;28;20022;-68
2022/11/22 00:14:15;;;;;;;0.10;0.10;;;;;;;5.54;100.00;99098.03;4976703;28;20460;-70
2022/11/22 00:16:40;;;;;;;0.17;0.17;;;;;;;5.68;100.00;99080.88;4988231;28;20472;-71
2022/11/22 00:19:06;;;;;;;0.10;0.10;;;;;;;6.09;100.00;99080.09;4994679;28;20038;-71
2022/11/22 00:21:31;;;;;;;0.10;0.10;;;;;;;5.72;100.00;99094.75;4978511;28;20504;-70
2022/11/22 00:23:56;;;;;;;0.20;0.20;;;;;;;5.67;100.00;99091.63;4995342;28;20038;-71
2022/11/22 00:26:23;;;;;;;0.10;0.10;;;;;;;5.65;100.00;99097.09;4983348;28;20495;-68
2022/11/22 00:28:48;;;;;;;0.10;0.10;;;;;;;5.65;100.00;99097.09;4982969;28;20043;-68
2022/11/22 00:31:13;;;;;;;0.28;0.28;;;;;;;5.63;100.00;99088.41;4994057;28;20030;-68
2022/11/22 00:33:39;;;;;;;0.10;0.10;;;;;;;5.59;100.00;99086.97;4983225;28;20492;-68
2022/11/22 00:36:04;;;;;;;0.10;0.10;;;;;;;5.66;100.00;99100.59;4989426;28;20036;-71
2022/11/22 00:38:29;;;;;;;0.20;0.20;;;;;;;5.92;100.00;99094.84;4988737;28;20033;-69
2022/11/22 00:40:55;;;;;;;0.10;0.10;;;;;;;5.70;100.00;99092.19;4996859;28;20392;-69
2022/11/22 00:43:20;;;;;;;0.10;0.10;;;;;;;5.76;100.00;99082.88;4985641;28;20057;-71
2022/11/22 00:45:45;;;;;;;0.15;0.15;;;;;;;5.76;100.00;99088.19;4983625;28;20026;-68
2022/11/22 00:48:10;;;;;;;0.20;0.20;;;;;;;5.80;100.00;99086.97;4986297;28;20030;-68
2022/11/22 00:50:36;;;;;;;0.10;0.10;;;;;;;5.55;100.00;99085.53;4986312;28;20052;-70
2022/11/22 00:53:01;;;;;;;0.20;0.20;;;;;;;5.79;100.00;99089.75;4981822;28;20101;-71
2022/11/22 00:55:26;;;;;;;0.20;0.20;;;;;;;5.94;100.00;99098.22;4988149;28;20038;-71
2022/11/22 00:57:52;;;;;;;0.10;0.10;;;;;;;5.67;100.00;99094.28;4986286;28;20574;-68
2022/11/22 01:00:17;;;;;;;0.20;0.20;;;;;;;5.50;100.00;99096.59;4985872;28;20368;-70
2022/11/22 01:02:42;;;;;;;0.20;0.20;;;;;;;5.72;100.00;99097.41;4980033;28;20030;-72
2022/11/22 01:05:08;;;;;;;0.20;0.20;;;;;;;5.47;100.00;99093.31;4977481;28;20035;-71
2022/11/22 01:07:33;;;;;;;0.20;0.20;;;;;;;5.49;100.00;99067.41;4984300;28;20026;-70
2022/11/22 01:09:58;;;;;;;0.17;0.17;;;;;;;5.69;100.00;99098.50;4993314;28;20585;-71
2022/11/22 01:12:24;;;;;;;0.20;0.20;;;;;;;5.67;100.00;99092.50;4979455;28;20126;-72
2022/11/22 01:14:49;;;;;;;0.10;0.10;;;;;;;5.46;100.00;99055.22;4985173;28;20120;-72
2022/11/22 01:17:14;;;;;;;0.10;0.10;;;;;;;5.78;100.00;99093.38;4981754;28;20038;-70
2022/11/22 01:19:40;;;;;;;0.20;0.20;;;;;;;5.75;100.00;99083.84;4985048;28;20127;-71
2022/11/22 01:22:05;;;;;;;0.20;0.20;;;;;;;5.65;100.00;99096.25;4982515;28;20731;-71
2022/11/22 01:24:30;;;;;;;0.20;0.20;;;;;;;5.68;100.00;99088.00;4985018;28;20500;-70
2022/11/22 01:26:56;;;;;;;0.10;0.10;;;;;;;5.63;100.00;99085.75;4986401;28;20026;-72
2022/11/22 01:29:21;;;;;;;0.20;0.20;;;;;;;5.60;100.00;99087.81;4977750;28;20030;-71
2022/11/22 01:31:46;;;;;;;0.20;0.20;;;;;;;5.67;100.00;99094.28;4995226;28;20523;-72
2022/11/22 01:34:12;;;;;;;0.10;0.10;;;;;;;5.55;100.00;99096.19;4985250;28;20488;-72
2022/11/22 01:36:37;;;;;;;0.13;0.13;;;;;;;5.54;100.00;99087.38;4985388;28;20045;-72
2022/11/22 01:39:02;;;;;;;0.10;0.10;;;;;;;5.43;100.00;99097.25;4987527;28;20144;-71
2022/11/22 01:41:28;;;;;;;0.20;0.20;;;;;;;5.44;100.00;99096.25;4984877;28;20516;-72
2022/11/22 01:43:53;;;;;;;0.15;0.15;;;;;;;5.45;100.00;99092.59;4991139;28;20128;-71
2022/11/22 01:46:36;;;;;;;0.20;0.20;;;;;;;5.60;100.00;99091.31;4983929;28;20033;-73
2022/11/22 01:49:04;;;;;;;0.10;0.10;;;;;;;5.54;100.00;99107.81;4985200;28;20560;-69
2022/11/22 01:51:37;;;;;;;0.20;0.20;;;;;;;5.45;100.00;99111.25;4983664;28;20492;-69
2022/11/22 01:54:06;;;;;;;0.20;0.20;;;;;;;5.36;100.00;99095.09;4980803;28;20056;-68
2022/11/22 01:56:32;;;;;;;0.20;0.20;;;;;;;5.75;100.00;99109.63;4988146;28;20065;-68
2022/11/22 01:59:01;;;;;;;0.10;0.10;;;;;;;5.66;100.00;99117.44;4988561;28;20041;-69
2022/11/22 02:01:27;;;;;;;0.20;0.20;;;;;;;5.55;100.00;99112.16;4982490;28;20042;-68
2022/11/22 02:03:54;;;;;;;0.20;0.20;;;;;;;5.47;100.00;99119.94;4974479;28;20492;-68
2022/11/22 02:06:20;;;;;;;0.10;0.10;;;;;;;5.28;100.00;99112.69;4982843;28;20084;-68
2022/11/22 02:09:05;;;;;;;0.10;0.10;;;;;;;5.06;100.00;99095.81;4992392;28;20784;-71
2022/11/22 02:11:30;;;;;;;0.20;0.20;;;;;;;5.20;100.00;99119.47;4994574;28;20156;-71
2022/11/22 02:13:56;;;;;;;0.20;0.20;;;;;;;5.28;100.00;99094.06;4983778;28;20080;-68
2022/11/22 02:16:21;;;;;;;0.13;0.13;;;;;;;5.23;100.00;99119.22;4979252;28;20030;-68
2022/11/22 02:18:46;;;;;;;0.20;0.20;;;;;;;5.24;100.00;99090.78;4992029;28;20109;-69
2022/11/22 02:21:12;;;;;;;0.20;0.20;;;;;;;5.29;100.00;99127.66;4980334;28;20421;-69
2022/11/22 02:23:44;;;;;;;0.20;0.20;;;;;;;5.38;100.00;99122.44;4985588;28;20511;-69
2022/11/22 02:26:11;;;;;;;0.20;0.20;;;;;;;5.18;100.00;99120.56;4985204;28;20129;-69
2022/11/22 02:28:38;;;;;;;0.20;0.20;;;;;;;5.29;100.00;99122.34;4977277;28;20554;-71
2022/11/22 02:31:03;;;;;;;0.20;0.20;;;;;;;5.56;100.00;99104.03;4984174;28;20395;-73
2022/11/22 02:33:28;;;;;;;0.20;0.20;;;;;;;5.37;100.00;99125.19;4989364;28;20030;-69
2022/11/22 02:35:54;;;;;;;0.20;0.20;;;;;;;5.65;100.00;99134.38;4980655;28;20491;-69
2022/11/22 02:38:20;;;;;;;0.10;0.10;;;;;;;5.30;100.00;99138.19;4981021;28;20085;-69
2022/11/22 02:40:52;;;;;;;0.20;0.20;;;;;;;5.29;100.00;99131.16;4987818;28;20089;-68
2022/11/22 02:43:19;;;;;;;0.20;0.20;;;;;;;5.16;100.00;99117.19;4975109;28;20058;-69
2022/11/22 02:45:45;;;;;;;0.10;0.10;;;;;;;5.31;100.00;99121.25;4984074;28;20121;-69
2022/11/22 02:48:13;;;;;;;0.20;0.20;;;;;;;5.47;100.00;99131.44;4981667;28;20027;-68
2022/11/22 02:50:39;;;;;;;0.20;0.20;;;;;;;5.17;100.00;99127.72;4996374;28;20025;-69
2022/11/22 02:53:04;;;;;;;0.10;0.10;;;;;;;5.28;100.00;99139.28;4986582;28;20022;-69
2022/11/22 02:55:30;;;;;;;0.20;0.20;;;;;;;5.45;100.00;99141.38;4989103;28;20472;-73
2022/11/22 02:57:55;;;;;;;0.20;0.20;;;;;;;5.34;100.00;99128.97;4987401;28;20476;-73
2022/11/22 03:00:21;;;;;;;0.20;0.20;;;;;;;5.10;100.00;99138.03;4981871;28;20026;-72
2022/11/22 03:02:46;;;;;;;0.10;0.10;;;;;;;5.10;100.00;99139.81;4985973;28;20033;-70
2022/11/22 03:05:12;;;;;;;0.13;0.13;;;;;;;5.16;100.00;99139.31;4975764;28;20586;-71
2022/11/22 03:07:37;;;;;;;0.20;0.20;;;;;;;5.09;100.00;99138.97;4981127;28;20037;-70
2022/11/22 03:10:03;;;;;;;0.20;0.20;;;;;;;5.17;100.00;99133.03;4985285;28;20164;-72
2022/11/22 03:12:28;;;;;;;0.20;0.20;;;;;;;5.05;100.00;99136.69;4980355;28;20073;-72
2022/11/22 03:14:53;;;;;;;0.20;0.20;;;;;;;5.23;100.00;99127.22;4986763;28;20037;-69
2022/11/22 03:17:19;;;;;;;0.20;0.20;;;;;;;5.18;100.00;99149.81;4983553;28;20042;-69
2022/11/22 03:19:44;;;;;;;0.20;0.20;;;;;;;5.11;100.00;99130.88;4979208;28;20058;-69
2022/11/22 03:22:09;;;;;;;0.20;0.20;;;;;;;5.24;100.00;99150.19;4981804;28;20526;-69
2022/11/22 03:24:35;;;;;;;0.20;0.20;;;;;;;5.05;100.00;99158.81;4986435;28;20498;-69
2022/11/22 03:27:00;;;;;;;0.15;0.15;;;;;;;4.93;100.00;99157.16;4982637;28;20066;-71
2022/11/22 03:29:25;;;;;;;0.20;0.20;;;;;;;5.12;100.00;99161.00;4983080;28;20030;-70
2022/11/22 03:31:50;;;;;;;0.20;0.20;;;;;;;4.85;100.00;99152.47;4984020;28;20026;-69
2022/11/22 03:34:16;;;;;;;0.25;0.25;;;;;;;4.90;100.00;99155.59;4992894;28;20022;-69
2022/11/22 03:36:41;;;;;;;0.17;0.17;;;;;;;4.83;100.00;99154.41;4981518;28;20130;-69
2022/11/22 03:39:06;;;;;;;0.20;0.20;;;;;;;4.85;100.00;99154.28;4997819;28;20030;-70
2022/11/22 03:41:32;;;;;;;0.20;0.20;;;;;;;4.79;100.00;99167.09;4985895;28;20038;-69
2022/11/22 03:43:57;;;;;;;0.20;0.20;;;;;;;4.74;100.00;99171.13;4989548;28;20479;-69
2022/11/22 03:46:22;;;;;;;0.20;0.20;;;;;;;4.93;100.00;99175.78;4987762;28;20069;-69
2022/11/22 03:48:48;;;;;;;0.20;0.20;;;;;;;4.87;100.00;99177.13;4987624;28;20524;-69
2022/11/22 03:51:13;;;;;;;0.20;0.20;;;;;;;4.80;100.00;99171.47;4987812;28;20067;-69
2022/11/22 03:53:38;;;;;;;0.10;0.10;;;;;;;4.80;100.00;99175.91;4990375;28;20117;-69
2022/11/22 03:56:04;;;;;;;0.20;0.20;;;;;;;4.58;100.00;99179.47;4985932;28;20033;-69
2022/11/22 03:58:30;;;;;;;0.20;0.20;;;;;;;4.87;100.00;99182.44;4988029;28;20034;-71
2022/11/22 04:00:56;;;;;;;0.20;0.20;;;;;;;4.71;100.00;99179.34;4990782;28;20058;-72
2022/11/22 04:03:21;;;;;;;0.20;0.20;;;;;;;4.63;100.00;99186.09;4976157;28;20659;-72
2022/11/22 04:05:47;;;;;;;0.20;0.20;;;;;;;4.65;100.00;99188.63;4967906;28;20030;-72
2022/11/22 04:08:12;;;;;;;0.20;0.20;;;;;;;4.56;100.00;99194.69;4987931;28;20042;-69
2022/11/22 04:10:38;;;;;;;0.10;0.10;;;;;;;4.62;100.00;99204.84;4996962;28;20068;-69
2022/11/22 04:13:03;;;;;;;0.20;0.20;;;;;;;4.58;100.00;99206.03;4981849;28;20042;-69
2022/11/22 04:15:28;;;;;;;0.20;0.20;;;;;;;4.49;100.00;99195.16;4981755;28;20050;-69
2022/11/22 04:17:54;;;;;;;0.20;0.20;;;;;;;4.41;100.00;99171.00;4982363;28;20034;-69
2022/11/22 04:23:12;;;;;;;0.20;0.20;;;;;;;4.52;100.00;99203.88;4985246;28;20069;-69
2022/11/22 04:25:40;;;;;;;0.10;0.10;;;;;;;4.55;100.00;99212.44;4987770;28;20504;-69
2022/11/22 04:28:07;;;;;;;0.20;0.20;;;;;;;4.42;100.00;99206.41;4982164;28;20038;-72
2022/11/22 04:33:16;;;;;;;;;;;;;;;4.07;100.00;99204.66;4984352;28;20026;-72
2022/11/22 04:35:42;;;;;;;0.15;0.15;;;;;;;4.25;100.00;99197.91;4994625;28;19918;-71
2022/11/22 04:38:08;;;;;;;0.20;0.20;;;;;;;4.47;100.00;99198.91;4990931;28;20066;-72
2022/11/22 04:40:34;;;;;;;0.20;0.20;;;;;;;4.31;100.00;99204.59;4983931;28;20472;-72
2022/11/22 04:45:43;;;;;;;0.22;0.22;;;;;;;4.01;100.00;99213.97;4982317;28;20056;-72
2022/11/22 04:48:11;;;;;;;0.30;0.30;;;;;;;3.97;100.00;99217.81;4978707;28;20404;-71
2022/11/22 04:53:21;;;;;;;0.17;0.17;;;;;;;3.83;100.00;99234.78;4985650;28;20042;-72
2022/11/22 04:55:46;;;;;;;0.20;0.20;;;;;;;3.83;100.00;99230.34;4987880;28;20022;-71
2022/11/22 04:58:12;;;;;;;0.20;0.20;;;;;;;3.82;100.00;99227.78;4983703;28;20041;-72
2022/11/22 05:00:38;;;;;;;0.20;0.20;;;;;;;4.09;100.00;99227.50;4983825;28;20037;-72
2022/11/22 05:03:03;;;;;;;0.20;0.20;;;;;;;3.96;100.00;99234.69;4979520;28;20084;-72
2022/11/22 05:05:29;;;;;;;0.10;0.10;;;;;;;3.94;100.00;99221.56;4981942;28;20030;-77
2022/11/22 05:07:56;;;;;;;0.20;0.20;;;;;;;4.08;100.00;99216.97;4979417;28;20128;-74
2022/11/22 05:10:21;;;;;;;0.30;0.30;;;;;;;3.96;100.00;99219.63;4980446;28;20081;-73
2022/11/22 05:12:47;;;;;;;0.20;0.20;;;;;;;4.14;100.00;99232.47;4977592;28;20121;-72
2022/11/22 05:15:12;;;;;;;0.20;0.20;;;;;;;3.94;100.00;99232.19;4979565;28;20041;-73
2022/11/22 05:17:38;;;;;;;0.20;0.20;;;;;;;4.08;100.00;99233.78;4982615;28;20109;-72
2022/11/22 05:20:07;;;;;;;0.20;0.20;;;;;;;3.85;100.00;99227.56;4979843;28;20044;-76
2022/11/22 05:25:17;;;;;;;0.20;0.20;;;;;;;4.09;100.00;99239.94;4983932;28;20116;-74
2022/11/22 05:27:42;;;;;;;0.20;0.20;;;;;;;3.86;100.00;99242.53;4983535;28;20109;-73
2022/11/22 05:30:08;;;;;;;0.20;0.20;;;;;;;3.73;100.00;99224.03;4976974;28;20049;-73
2022/11/22 05:32:34;;;;;;;0.20;0.20;;;;;;;3.62;100.00;99234.56;4981758;28;20409;-71
2022/11/22 05:34:59;;;;;;;0.20;0.20;;;;;;;3.59;100.00;99233.00;4983718;28;20539;-70
2022/11/22 05:37:25;;;;;;;0.20;0.20;;;;;;;3.81;100.00;99240.22;4982930;28;20115;-73
2022/11/22 05:39:50;;;;;;;0.20;0.20;;;;;;;3.84;100.00;99234.66;4987751;28;20030;-71
2022/11/22 05:42:16;;;;;;;0.20;0.20;;;;;;;3.57;100.00;99205.75;4985575;28;20077;-73
2022/11/22 05:44:41;;;;;;;0.20;0.20;;;;;;;3.92;100.00;99238.56;4990321;28;20037;-73
2022/11/22 05:47:07;;;;;;;0.20;0.20;;;;;;;3.77;100.00;99230.78;4988411;28;20093;-72
2022/11/22 05:49:32;;;;;;;0.20;0.20;;;;;;;3.85;100.00;99227.56;4993227;28;20141;-72
2022/11/22 05:51:58;;;;;;;0.10;0.10;;;;;;;3.60;100.00;99224.09;4985604;28;20034;-73
2022/11/22 05:54:23;;;;;;;0.20;0.20;;;;;;;3.55;100.00;99213.84;4974180;28;20022;-72
2022/11/22 05:56:48;;;;;;;0.20;0.20;;;;;;;3.57;100.00;99227.84;4978560;28;20101;-73
2022/11/22 05:59:13;;;;;;;0.20;0.20;;;;;;;3.43;100.00;99231.50;4984436;28;20476;-73
2022/11/22 06:01:39;;;;;;;0.20;0.20;;;;;;;3.25;100.00;99228.41;4979572;28;20065;-72
2022/11/22 06:04:04;;;;;;;0.20;0.20;;;;;;;3.44;100.00;99229.69;4981043;28;20319;-73
2022/11/22 06:06:30;;;;;;;0.20;0.20;;;;;;;3.56;100.00;99230.59;4984156;28;20181;-72
2022/11/22 06:08:55;;;;;;;0.20;0.20;;;;;;;3.44;100.00;99232.34;4982395;28;20503;-72
2022/11/22 06:11:25;;;;;;;0.17;0.17;;;;;;;3.46;100.00;99233.06;4984841;28;20034;-73
2022/11/22 06:13:58;;;;;;;0.20;0.20;;;;;;;3.46;100.00;99233.06;4985778;28;20026;-73
2022/11/22 06:16:25;;;;;;;0.20;0.20;;;;;;;3.10;100.00;99214.44;4979056;28;20026;-72
2022/11/22 06:18:52;;;;;;;0.20;0.20;;;;;;;3.40;100.00;99242.34;4991097;28;20189;-72
2022/11/22 06:21:22;;;;;;;0.20;0.20;;;;;;;3.23;100.00;99224.16;4987985;28;20439;-71
2022/11/22 06:23:47;;;;;;;0.20;0.20;;;;;;;3.49;100.00;99245.25;4985007;28;20030;-71
2022/11/22 06:26:16;;;;;;;0.20;0.20;;;;;;;3.40;100.00;99236.19;4987782;28;20050;-73
2022/11/22 06:28:42;;;;;;;0.20;0.20;;;;;;;3.36;100.00;99246.19;4980633;28;20065;-73
2022/11/22 06:31:13;;;;;;;0.20;0.20;;;;;;;3.12;100.00;99214.31;4978820;28;20038;-72
2022/11/22 06:33:39;;;;;;;0.20;0.20;;;;;;;3.59;100.00;99249.78;4982454;28;20022;-73
2022/11/22 06:36:09;;;;;;;0.20;0.20;;;;;;;3.34;100.00;99242.78;4969441;28;20034;-72
2022/11/22 06:38:35;;;;;;;0.20;0.20;;;;;;;3.33;100.00;99245.53;4997262;28;20105;-70
2022/11/22 06:41:06;;;;;;;0.30;0.30;;;;;;;3.37;100.00;99245.22;4985264;28;20536;-73
2022/11/22 06:43:32;;;;;;;0.30;0.30;;;;;;;3.52;100.00;99251.22;4973316;28;20057;-73
2022/11/22 06:45:59;;;;;;;0.20;0.20;;;;;;;3.37;100.00;99249.66;4978893;28;20044;-72
2022/11/22 06:48:32;;;;;;;0.28;0.28;;;;;;;3.28;100.00;99248.53;4983204;28;20113;-73
2022/11/22 06:50:58;;;;;;;0.20;0.20;;;;;;;3.33;100.00;99243.75;4993691;28;20050;-71
2022/11/22 06:53:26;;;;;;;0.20;0.20;;;;;;;3.19;100.00;99242.09;4991696;28;20030;-71
2022/11/22 06:55:51;;;;;;;0.20;0.20;;;;;;;3.22;100.00;99255.16;4981883;28;20456;-73
2022/11/22 06:58:17;;;;;;;0.20;0.20;;;;;;;3.25;100.00;99235.50;4985252;28;20309;-76
2022/11/22 07:00:42;;;;;;;0.20;0.20;;;;;;;3.08;100.00;99260.59;4980067;28;20026;-73
2022/11/22 07:03:07;;;;;;;0.20;0.20;;;;;;;3.28;100.00;99269.75;4984118;28;20062;-73
2022/11/22 07:05:33;;;;;;;0.20;0.20;;;;;;;3.10;100.00;99267.50;4979888;28;20544;-72
2022/11/22 07:07:58;;;;;;;0.20;0.20;;;;;;;3.06;100.00;99273.97;4983479;28;20536;-73
2022/11/22 07:10:23;;;;;;;0.20;0.20;;;;;;;3.08;100.00;99277.34;4984484;28;20041;-73
2022/11/22 07:12:49;;;;;;;0.20;0.20;;;;;;;3.17;100.00;99270.53;4985208;28;20062;-72
2022/11/22 07:15:14;;;;;;;0.30;0.30;;;;;;;3.04;100.00;99267.09;4980718;28;20034;-74
2022/11/22 07:17:39;;;;;;;0.25;0.25;;;;;;;3.39;100.00;99280.44;4983924;28;20101;-75
2022/11/22 07:20:05;;;;;;;0.20;0.20;;;;;;;3.27;100.00;99290.16;4973253;28;20057;-72
2022/11/22 07:22:30;;;;;;;0.30;0.30;;;;;;;3.44;100.00;99294.19;4981425;28;20046;-75
2022/11/22 07:24:55;;;;;;;0.15;0.15;;;;;;;3.49;100.00;99295.69;4983732;28;20038;-72
2022/11/22 07:27:21;;;;;;;0.20;0.20;;;;;;;3.74;100.00;99300.88;4974577;28;20451;-72
2022/11/22 07:29:46;;;;;;;0.20;0.20;;;;;;;3.60;100.00;99291.28;4976763;28;20031;-73
2022/11/22 07:32:11;;;;;;;0.20;0.20;;;;;;;3.82;100.00;99294.16;4983686;28;20026;-74
2022/11/22 07:34:37;;;;;;;0.20;0.20;;;;;;;3.76;100.00;99300.78;4985720;28;20065;-75
2022/11/22 07:37:02;;;;;;;0.17;0.17;;;;;;;3.87;100.00;99310.59;4982373;28;20487;-74
2022/11/22 07:39:27;;;;;;;0.20;0.20;;;;;;;4.14;100.00;99305.00;4977981;28;20042;-72
2022/11/22 07:41:53;;;;;;;0.20;0.20;;;;;;;3.90;100.00;99303.25;4974767;28;20038;-74
2022/11/22 07:44:18;;;;;;;0.20;0.20;;;;;;;3.94;100.00;99293.25;4986652;28;20121;-76
2022/11/22 07:46:43;;;;;;;0.20;0.20;;;;;;;4.13;100.00;99310.44;4980384;28;20030;-72
2022/11/22 07:49:08;;;;;;;0.20;0.20;;;;;;;4.18;100.00;99325.06;4975201;28;20473;-74
2022/11/22 07:51:34;;;;;;;0.20;0.20;;;;;;;4.28;100.00;99317.25;4971783;28;20061;-73
2022/11/22 07:53:59;;;;;;;0.20;0.20;;;;;;;4.14;100.00;99315.63;4966121;28;20145;-73
2022/11/22 07:56:25;;;;;;;0.20;0.20;;;;;;;3.96;100.00;99304.63;4974779;28;20492;-73
2022/11/22 07:58:50;;;;;;;0.20;0.20;;;;;;;4.53;100.00;99322.50;4973027;28;20462;-74
2022/11/22 08:01:17;;;;;;;0.20;0.20;;;;;;;4.22;100.00;99325.72;4986775;28;20034;-74
2022/11/22 08:03:42;;;;;;;0.20;0.20;;;;;;;4.24;100.00;99325.56;4982540;28;20034;-74
2022/11/22 08:06:09;;;;;;;0.20;0.20;;;;;;;4.53;100.00;99318.03;4978017;28;20034;-75
2022/11/22 08:08:35;;;;;;;0.30;0.30;;;;;;;4.52;100.00;99318.16;5000222;28;20354;-72
2022/11/22 08:11:01;;;;;;;0.20;0.20;;;;;;;4.38;100.00;99322.69;4990985;28;20510;-73
2022/11/22 08:13:27;;;;;;;0.10;0.10;;;;;;;4.52;100.00;99304.88;4980042;28;20407;-73
2022/11/22 08:15:53;;;;;;;0.20;0.20;;;;;;;4.53;100.00;99318.03;4986308;28;20073;-73
2022/11/22 08:18:18;;;;;;;0.20;0.20;;;;;;;4.52;100.00;99284.44;5001094;28;20045;-80
2022/11/22 08:20:43;;;;;;;0.20;0.20;;;;;;;4.68;100.00;99320.47;4974961;28;20476;-74
2022/11/22 08:23:09;;;;;;;0.20;0.20;;;;;;;4.70;100.00;99314.06;4981976;28;20034;-74
2022/11/22 08:25:34;;;;;;;0.20;0.20;;;;;;;4.80;100.00;99300.91;4984151;28;20468;-74
2022/11/22 08:27:59;;;;;;;0.20;0.20;;;;;;;4.85;100.00;99308.53;4985416;28;20433;-73
2022/11/22 08:30:25;;;;;;;0.17;0.17;;;;;;;4.85;100.00;99303.22;4981303;28;20090;-73
2022/11/22 08:32:53;;;;;;;0.20;0.20;;;;;;;4.90;100.00;99312.50;4995050;28;20112;-74
2022/11/22 08:35:18;;;;;;;0.20;0.20;;;;;;;5.08;100.00;99320.00;4997214;28;20522;-75
2022/11/22 08:37:44;;;;;;;0.15;0.15;;;;;;;4.94;100.00;99307.78;4994307;28;20049;-72
2022/11/22 08:40:10;;;;;;;0.10;0.10;;;;;;;5.15;100.00;99315.06;4994863;28;20059;-75
2022/11/22 08:42:35;;;;;;;0.10;0.10;;;;;;;4.93;100.00;99314.94;4999152;28;20052;-74
2022/11/22 08:45:00;;;;;;;0.20;0.20;;;;;;;5.08;100.00;99288.94;4989264;28;20061;-76
2022/11/22 08:47:25;;;;;;;0.10;0.10;;;;;;;4.83;100.00;99303.31;4973083;28;20042;-75
2022/11/22 08:49:51;;;;;;;0.10;0.10;;;;;;;5.00;100.00;99325.94;4987417;28;20070;-73
2022/11/22 08:52:16;;;;;;;0.10;0.10;;;;;;;5.11;100.00;99317.09;4986348;28;20034;-77
2022/11/22 08:54:41;;;;;;;0.20;0.20;;;;;;;5.22;100.00;99322.41;4979370;28;20041;-77
2022/11/22 08:57:07;;;;;;;0.20;0.20;;;;;;;5.22;100.00;99319.75;4993564;28;20064;-75
2022/11/22 08:59:32;;;;;;;0.10;0.10;;;;;;;5.17;100.00;99337.03;4978227;28;20113;-73
2022/11/22 09:01:57;;;;;;;0.20;0.20;;;;;;;5.22;100.00;99342.84;4982307;28;20491;-74
2022/11/22 09:04:23;;;;;;;0.20;0.20;;;;;;;5.24;100.00;99314.31;4992044;28;20038;-76
2022/11/22 09:06:48;;;;;;;0.10;0.10;;;;;;;5.12;100.00;99302.81;4984894;28;20022;-75
2022/11/22 09:09:13;;;;;;;0.20;0.20;;;;;;;5.16;100.00;99317.59;4993822;28;21010;-72
2022/11/22 09:11:38;;;;;;;0.20;0.20;;;;;;;5.25;100.00;99310.69;4969802;28;20030;-76
2022/11/22 09:14:04;;;;;;;0.20;0.20;;;;;;;5.29;100.00;99308.63;4970723;28;20142;-75
2022/11/22 09:16:29;;;;;;;0.20;0.20;;;;;;;5.15;100.00;99331.03;4982013;28;20060;-74
2022/11/22 09:18:54;;;;;;;0.10;0.10;;;;;;;5.28;100.00;99346.84;4991092;28;20026;-76
2022/11/22 09:21:20;;;;;;;0.15;0.15;;;;;;;5.24;100.00;99359.53;4985342;28;20142;-75
2022/11/22 09:23:47;;;;;;;0.20;0.20;;;;;;;5.39;100.00;99358.34;4981482;28;20401;-73
2022/11/22 09:26:15;;;;;;;0.20;0.20;;;;;;;5.42;100.00;99351.91;4983356;28;20030;-73
2022/11/22 09:28:41;;;;;;;0.17;0.17;;;;;;;5.42;100.00;99345.75;4979054;28;20026;-75
2022/11/22 09:31:08;;;;;;;0.10;0.10;;;;;;;5.14;100.00;99332.81;4981201;28;20358;-73
2022/11/22 09:33:35;;;;;;;0.10;0.10;;;;;;;5.59;100.00;99350.56;4972741;28;20034;-72
2022/11/22 09:36:08;;;;;;;0.10;0.10;;;;;;;5.64;100.00;99343.03;4988097;28;20042;-74
2022/11/22 09:38:34;;;;;;;0.10;0.10;;;;;;;5.81;100.00;99348.81;4969249;28;20480;-72
2022/11/22 09:41:02;;;;;;;0.10;0.10;;;;;;;5.63;100.00;99317.38;4987120;28;20034;-77
2022/11/22 09:43:53;;;;;;;0.13;0.13;;;;;;;5.67;100.00;99352.59;4977075;28;20023;-75
2022/11/22 09:46:37;;;;;;;0.20;0.20;;;;;;;6.05;100.00;99324.66;4969084;28;20061;-76
2022/11/22 09:49:18;;;;;;;0.20;0.20;;;;;;;5.79;100.00;99318.78;4993066;28;20358;-73
2022/11/22 09:52:09;;;;;;;0.10;0.10;;;;;;;5.73;100.00;99314.81;4984895;28;21924;-74
2022/11/22 09:54:43;;;;;;;0.10;0.10;;;;;;;5.74;100.00;99344.94;4982061;28;20440;-73
2022/11/22 09:57:13;;;;;;;0.20;0.20;;;;;;;5.79;100.00;99332.97;4966139;28;20026;-74
2022/11/22 09:59:40;;;;;;;0.20;0.20;;;;;;;6.13;100.00;99342.66;4979277;28;20112;-72
2022/11/22 10:02:18;;;;;;;0.10;0.10;;;;;;;6.02;100.00;99327.59;4968635;28;20495;-75
2022/11/22 10:04:49;;;;;;;0.10;0.10;;;;;;;6.21;100.00;99352.69;4966516;28;20113;-73
2022/11/22 10:07:21;;;;;;;0.10;0.10;;;;;;;5.94;100.00;99320.19;4968825;28;20034;-74
2022/11/22 10:09:49;;;;;;;0.10;0.10;;;;;;;6.32;100.00;99347.31;4990516;28;20164;-75
2022/11/22 10:12:44;;;;;;;0.20;0.20;;;;;;;6.42;100.00;99342.06;4990628;28;20476;-72
2022/11/22 10:15:40;;;;;;;0.20;0.20;;;;;;;6.59;100.00;99330.78;4976940;28;20046;-74
2022/11/22 10:18:37;;;;;;;0.10;0.10;;;;;;;6.34;100.00;99332.03;4985805;28;20022;-73
2022/11/22 10:21:02;;;;;;;0.20;0.20;;;;;;;6.44;100.00;99332.94;4982764;28;20034;-72
2022/11/22 10:23:28;;;;;;;0.10;0.10;;;;;;;6.27;100.00;99321.03;4989751;28;20037;-72
2022/11/22 10:25:58;;;;;;;0.15;0.15;;;;;;;6.54;100.00;99306.31;4974903;28;20026;-75
2022/11/22 10:28:47;;;;;;;0.10;0.10;;;;;;;6.51;100.00;99327.91;4973751;28;20030;-74
2022/11/22 10:31:50;;;;;;;0.10;0.10;;;;;;;6.16;100.00;99326.44;4983453;28;20030;-73
2022/11/22 10:34:31;;;;;;;0.10;0.10;;;;;;;6.30;100.00;99333.28;4984198;28;20030;-72
2022/11/22 10:37:18;;;;;;;0.13;0.13;;;;;;;6.37;100.00;99328.25;4983166;28;20492;-76
2022/11/22 10:40:11;;;;;;;0.20;0.20;;;;;;;6.21;100.00;99318.03;4986356;28;20130;-74
2022/11/22 10:42:47;;;;;;;0.10;0.10;;;;;;;6.17;100.00;99317.47;4974304;28;20038;-75
2022/11/22 10:45:35;;;;;;;0.17;0.17;;;;;;;6.30;100.00;99326.09;4982111;28;20030;-75
2022/11/22 10:48:24;;;;;;;0.10;0.10;;;;;;;6.25;100.00;99299.00;5001905;28;20041;-72
2022/11/22 10:50:57;;;;;;;0.10;0.10;;;;;;;6.10;100.00;99325.09;4980170;28;20920;-73
2022/11/22 10:53:43;;;;;;;0.20;0.20;;;;;;;6.15;100.00;99312.25;4980195;28;20404;-73
2022/11/22 10:56:49;;;;;;;0.10;0.10;;;;;;;6.26;100.00;99313.19;4980355;28;20133;-74
2022/11/22 10:59:19;;;;;;;0.10;0.10;;;;;;;6.07;100.00;99311.19;4986983;28;20049;-72
2022/11/22 11:02:22;;;;;;;0.13;0.13;;;;;;;6.42;100.00;99312.72;4982595;28;20125;-76
2022/11/22 11:04:49;;;;;;;0.10;0.10;;;;;;;6.25;100.00;99284.81;4990111;28;20484;-72
2022/11/22 11:07:18;;;;;;;0.10;0.10;;;;;;;6.41;100.00;99295.03;4971892;28;20022;-73
2022/11/22 11:09:47;;;;;;;0.10;0.10;;;;;;;6.68;100.00;99309.66;4969088;28;20035;-72
2022/11/22 11:12:16;;;;;;;0.10;0.10;;;;;;;6.50;100.00;99293.41;4989307;28;20029;-73
2022/11/22 11:14:47;;;;;;;0.10;0.10;;;;;;;6.64;100.00;99301.03;4984730;28;20030;-74
2022/11/22 11:17:17;;;;;;;0.10;0.10;;;;;;;6.45;100.00;99302.63;4983765;28;20417;-74
2022/11/22 11:19:44;;;;;;;0.10;0.10;;;;;;;6.50;100.00;99299.56;4988129;28;20062;-71
2022/11/22 11:22:18;;;;;;;0.10;0.10;;;;;;;6.78;100.00;99301.69;4982333;28;20117;-75
2022/11/22 11:24:43;;;;;;;0.10;0.10;;;;;;;6.60;100.00;99294.31;4980054;28;20469;-73
2022/11/22 11:27:10;;;;;;;0.10;0.10;;;;;;;6.86;100.00;99297.38;4973784;28;20042;-72
2022/11/22 11:29:44;;;;;;;0.10;0.10;;;;;;;7.06;100.00;99286.78;4981965;28;20029;-73
2022/11/22 11:32:18;;;;;;;0.10;0.10;;;;;;;7.24;100.00;99275.47;4971243;28;20034;-73
2022/11/22 11:34:59;;;;;;;0.10;0.10;;;;;;;7.81;100.00;99281.03;4988540;28;20487;-73
2022/11/22 11:37:33;;;;;;;0.10;0.10;;;;;;;8.13;100.00;99281.72;4997028;28;20045;-73
2022/11/22 11:39:58;;;;;;;0.10;0.10;;;;;;;7.85;100.00;99270.88;4984055;28;20379;-74
2022/11/22 11:42:32;;;;;;;0.10;0.10;;;;;;;7.85;100.00;99269.06;4977397;28;20039;-72
2022/11/22 11:45:17;;;;;;;0.10;0.10;;;;;;;7.71;100.00;99273.00;4989515;28;20126;-73
2022/11/22 11:47:42;;;;;;;0.10;0.10;;;;;;;7.38;100.00;99268.91;4978716;28;20037;-75
2022/11/22 11:50:25;;;;;;;0.10;0.10;;;;;;;7.45;100.00;99275.34;4989696;28;20034;-75
2022/11/22 11:52:56;;;;;;;0.10;0.10;;;;;;;7.11;100.00;99268.53;4992546;28;20021;-74